createdAt,value
2017-04-17T00:00:43.861Z,99.99
2017-04-17T00:01:43.845Z,99.99
2017-04-17T00:02:43.522Z,99.99
2017-04-17T00:03:43.499Z,99.99
2017-04-17T00:04:43.783Z,99.99
2017-04-17T00:05:43.765Z,99.99
2017-04-17T00:06:43.731Z,99.99
2017-04-17T00:07:43.722Z,99.99
2017-04-17T00:08:43.709Z,99.99
2017-04-17T00:09:43.374Z,99.99
2017-04-17T00:10:43.650Z,99.99
2017-04-17T00:11:43.639Z,99.99
2017-04-17T00:12:43.613Z,99.99
2017-04-17T00:13:43.612Z,99.99
2017-04-17T00:14:43.571Z,99.99
2017-04-17T00:15:43.551Z,99.99
2017-04-17T00:16:43.535Z,99.99
2017-04-17T00:17:43.519Z,99.99
2017-04-17T00:18:43.494Z,99.99
2017-04-17T00:19:43.462Z,99.99
2017-04-17T00:20:43.455Z,99.99
2017-04-17T00:21:43.432Z,99.99
2017-04-17T00:22:43.102Z,99.99
2017-04-17T00:23:43.383Z,99.99
2017-04-17T00:24:43.349Z,99.99
2017-04-17T00:25:43.340Z,99.99
2017-04-17T00:26:43.324Z,99.99
2017-04-17T00:27:43.298Z,99.99
2017-04-17T00:28:42.970Z,99.99
2017-04-17T00:29:42.945Z,99.99
2017-04-17T00:30:43.226Z,99.99
2017-04-17T00:31:43.212Z,99.99
2017-04-17T00:32:42.879Z,99.99
2017-04-17T00:33:42.862Z,99.99
2017-04-17T00:34:42.834Z,99.99
2017-04-17T00:35:43.126Z,99.99
2017-04-17T00:36:43.091Z,99.99
2017-04-17T00:37:42.775Z,99.99
2017-04-17T00:38:43.055Z,99.99
2017-04-17T00:39:43.046Z,99.99
2017-04-17T00:40:43.014Z,99.99
2017-04-17T00:41:42.987Z,99.99
2017-04-17T00:42:42.662Z,99.99
2017-04-17T00:43:42.945Z,99.99
2017-04-17T00:44:42.919Z,99.99
2017-04-17T00:45:42.903Z,99.99
2017-04-17T00:46:42.882Z,99.99
2017-04-17T00:47:42.553Z,99.99
2017-04-17T00:48:42.532Z,99.99
2017-04-17T00:49:42.818Z,99.99
2017-04-17T00:50:42.483Z,99.99
2017-04-17T00:51:42.761Z,99.99
2017-04-17T00:52:42.752Z,99.99
2017-04-17T00:53:42.417Z,99.99
2017-04-17T00:54:42.416Z,99.99
2017-04-17T00:55:42.393Z,99.99
2017-04-17T00:56:42.662Z,99.99
2017-04-17T00:57:42.333Z,99.99
2017-04-17T00:58:42.621Z,99.99
2017-04-17T00:59:42.613Z,99.99
2017-04-17T01:00:42.285Z,99.99
2017-04-17T01:01:42.550Z,99.99
2017-04-17T01:02:42.542Z,99.99
2017-04-17T01:03:42.219Z,99.99
2017-04-17T01:04:42.502Z,99.99
2017-04-17T01:05:42.464Z,99.99
2017-04-17T01:06:42.451Z,99.99
2017-04-17T01:07:42.127Z,99.99
2017-04-17T01:08:42.405Z,99.99
2017-04-17T01:09:42.392Z,99.99
2017-04-17T01:10:42.373Z,99.99
2017-04-17T01:11:42.046Z,99.99
2017-04-17T01:12:42.013Z,99.99
2017-04-17T01:13:42.297Z,99.99
2017-04-17T01:14:41.979Z,99.99
2017-04-17T01:15:42.252Z,99.99
2017-04-17T01:16:42.236Z,99.99
2017-04-17T01:17:42.213Z,99.99
2017-04-17T01:18:42.194Z,99.99
2017-04-17T01:19:41.863Z,99.99
2017-04-17T01:20:41.832Z,99.99
2017-04-17T01:21:41.812Z,99.99
2017-04-17T01:22:42.097Z,99.99
2017-04-17T01:23:42.090Z,99.99
2017-04-17T01:24:41.753Z,99.99
2017-04-17T01:25:42.035Z,99.99
2017-04-17T01:26:42.026Z,99.99
2017-04-17T01:27:41.682Z,99.99
2017-04-17T01:28:41.979Z,99.99
2017-04-17T01:29:41.966Z,99.99
2017-04-17T01:30:41.941Z,99.99
2017-04-17T01:31:41.655Z,99.99
2017-04-17T01:32:41.895Z,99.99
2017-04-17T01:33:41.912Z,99.99
2017-04-17T01:34:41.841Z,99.99
2017-04-17T01:35:41.520Z,99.99
2017-04-17T01:36:41.803Z,99.99
2017-04-17T01:37:41.489Z,99.99
2017-04-17T01:38:41.764Z,99.99
2017-04-17T01:39:41.732Z,99.99
2017-04-17T01:40:41.722Z,99.99
2017-04-17T01:41:41.742Z,99.99
2017-04-17T01:42:41.671Z,99.99
2017-04-17T01:43:41.713Z,99.99
2017-04-17T01:44:41.622Z,99.99
2017-04-17T01:45:41.321Z,99.99
2017-04-17T01:46:41.605Z,99.99
2017-04-17T01:47:41.353Z,99.99
2017-04-17T01:48:41.551Z,99.99
2017-04-17T01:49:41.532Z,99.99
2017-04-17T01:50:41.193Z,99.99
2017-04-17T01:51:41.832Z,99.99
2017-04-17T01:52:41.552Z,99.99
2017-04-17T01:53:41.472Z,99.99
2017-04-17T01:54:41.412Z,99.99
2017-04-17T01:55:41.324Z,99.99
2017-04-17T01:56:41.412Z,99.99
2017-04-17T01:57:41.401Z,99.99
2017-04-17T01:58:41.363Z,99.99
2017-04-17T01:59:41.311Z,99.99
2017-04-17T02:00:40.974Z,99.99
2017-04-17T02:01:41.351Z,99.99
2017-04-17T02:02:40.941Z,99.99
2017-04-17T02:03:41.212Z,99.99
2017-04-17T02:04:41.203Z,99.99
2017-04-17T02:05:41.173Z,99.99
2017-04-17T02:06:41.142Z,99.99
2017-04-17T02:07:41.143Z,99.99
2017-04-17T02:08:41.214Z,99.99
2017-04-17T02:09:41.093Z,99.99
2017-04-17T02:10:41.062Z,99.99
2017-04-17T02:11:41.035Z,99.99
2017-04-17T02:12:41.115Z,99.99
2017-04-17T02:13:40.695Z,99.99
2017-04-17T02:14:40.975Z,99.99
2017-04-17T02:15:40.952Z,99.99
2017-04-17T02:16:40.931Z,99.99
2017-04-17T02:17:40.913Z,99.99
2017-04-17T02:18:40.905Z,99.99
2017-04-17T02:19:40.862Z,99.99
2017-04-17T02:20:40.537Z,99.99
2017-04-17T02:21:40.526Z,99.99
2017-04-17T02:22:40.492Z,99.99
2017-04-17T02:23:40.784Z,99.99
2017-04-17T02:24:40.785Z,99.99
2017-04-17T02:25:40.438Z,99.99
2017-04-17T02:26:40.711Z,99.99
2017-04-17T02:27:40.686Z,99.99
2017-04-17T02:28:40.683Z,99.99
2017-04-17T02:29:40.653Z,99.99
2017-04-17T02:30:40.634Z,99.99
2017-04-17T02:31:40.601Z,99.99
2017-04-17T02:32:40.276Z,99.99
2017-04-17T02:33:40.563Z,99.99
2017-04-17T02:34:40.233Z,99.99
2017-04-17T02:35:40.220Z,99.99
2017-04-17T02:36:40.492Z,99.99
2017-04-17T02:37:40.163Z,99.99
2017-04-17T02:38:40.152Z,99.99
2017-04-17T02:39:40.127Z,99.99
2017-04-17T02:40:40.395Z,99.99
2017-04-17T02:41:40.382Z,99.99
2017-04-17T02:42:40.364Z,99.99
2017-04-17T02:43:40.345Z,99.99
2017-04-17T02:44:40.322Z,99.99
2017-04-17T02:45:40.297Z,99.99
2017-04-17T02:46:40.283Z,99.99
2017-04-17T02:47:40.252Z,99.99
2017-04-17T02:48:39.925Z,99.99
2017-04-17T02:49:39.905Z,99.99
2017-04-17T02:50:39.884Z,99.99
2017-04-17T02:51:40.163Z,99.99
2017-04-17T02:52:40.153Z,99.99
2017-04-17T02:53:40.114Z,99.99
2017-04-17T02:54:40.110Z,99.99
2017-04-17T02:55:40.078Z,99.99
2017-04-17T02:56:39.742Z,99.99
2017-04-17T02:57:40.034Z,99.99
2017-04-17T02:58:40.013Z,99.99
2017-04-17T02:59:39.993Z,99.99
2017-04-17T03:00:39.662Z,99.99
2017-04-17T03:01:39.940Z,99.99
2017-04-17T03:02:39.923Z,99.99
2017-04-17T03:03:39.904Z,99.99
2017-04-17T03:04:39.882Z,99.99
2017-04-17T03:05:39.610Z,99.99
2017-04-17T03:06:39.833Z,99.99
2017-04-17T03:07:39.815Z,99.99
2017-04-17T03:08:39.793Z,99.99
2017-04-17T03:09:39.460Z,99.99
2017-04-17T03:10:39.741Z,99.99
2017-04-17T03:11:39.724Z,99.99
2017-04-17T03:12:39.393Z,99.99
2017-04-17T03:13:39.380Z,99.99
2017-04-17T03:14:39.344Z,99.99
2017-04-17T03:15:39.403Z,99.99
2017-04-17T03:16:39.616Z,99.99
2017-04-17T03:17:39.596Z,99.99
2017-04-17T03:18:39.562Z,99.99
2017-04-17T03:19:39.546Z,99.99
2017-04-17T03:20:39.532Z,99.99
2017-04-17T03:21:39.512Z,99.99
2017-04-17T03:22:39.493Z,99.99
2017-04-17T03:23:39.161Z,99.99
2017-04-17T03:24:39.435Z,99.99
2017-04-17T03:25:39.102Z,99.99
2017-04-17T03:26:39.082Z,99.99
2017-04-17T03:27:39.375Z,99.99
2017-04-17T03:28:39.044Z,99.99
2017-04-17T03:29:39.021Z,99.99
2017-04-17T03:30:39.302Z,99.99
2017-04-17T03:31:39.282Z,99.99
2017-04-17T03:32:39.264Z,99.99
2017-04-17T03:33:39.233Z,99.99
2017-04-17T03:34:38.914Z,99.99
2017-04-17T03:35:39.185Z,99.99
2017-04-17T03:36:39.173Z,99.99
2017-04-17T03:37:39.157Z,99.99
2017-04-17T03:38:39.121Z,99.99
2017-04-17T03:39:38.799Z,99.99
2017-04-17T03:40:39.083Z,99.99
2017-04-17T03:41:38.755Z,99.99
2017-04-17T03:42:39.042Z,99.99
2017-04-17T03:43:38.703Z,99.99
2017-04-17T03:44:38.684Z,99.99
2017-04-17T03:45:38.971Z,99.99
2017-04-17T03:46:38.953Z,99.99
2017-04-17T03:47:38.621Z,99.99
2017-04-17T03:48:38.903Z,99.99
2017-04-17T03:49:38.891Z,99.99
2017-04-17T03:50:38.863Z,99.99
2017-04-17T03:51:38.851Z,99.99
2017-04-17T03:52:38.821Z,99.99
2017-04-17T03:53:38.799Z,99.99
2017-04-17T03:54:38.782Z,99.99
2017-04-17T03:55:38.744Z,99.99
2017-04-17T03:56:38.727Z,99.99
2017-04-17T03:57:38.404Z,99.99
2017-04-17T03:58:38.704Z,99.99
2017-04-17T03:59:38.659Z,99.99
2017-04-17T04:00:38.644Z,99.99
2017-04-17T04:01:38.644Z,99.99
2017-04-17T04:02:38.606Z,99.99
2017-04-17T04:03:38.275Z,99.99
2017-04-17T04:04:38.575Z,99.99
2017-04-17T04:05:38.523Z,99.99
2017-04-17T04:06:38.523Z,99.99
2017-04-17T04:07:38.502Z,99.99
2017-04-17T04:08:38.485Z,99.99
2017-04-17T04:09:38.454Z,99.99
2017-04-17T04:10:38.133Z,99.99
2017-04-17T04:11:38.113Z,99.99
2017-04-17T04:12:38.384Z,99.99
2017-04-17T04:13:38.352Z,99.99
2017-04-17T04:14:38.031Z,99.99
2017-04-17T04:15:38.007Z,99.99
2017-04-17T04:16:38.293Z,99.99
2017-04-17T04:17:38.272Z,99.99
2017-04-17T04:18:38.245Z,99.99
2017-04-17T04:19:37.916Z,99.99
2017-04-17T04:20:38.202Z,99.99
2017-04-17T04:21:38.172Z,99.99
2017-04-17T04:22:38.193Z,99.99
2017-04-17T04:23:37.835Z,99.99
2017-04-17T04:24:38.114Z,99.99
2017-04-17T04:25:38.102Z,99.99
2017-04-17T04:26:38.062Z,99.99
2017-04-17T04:27:37.732Z,99.99
2017-04-17T04:28:38.076Z,99.99
2017-04-17T04:29:38.002Z,99.99
2017-04-17T04:30:37.691Z,99.99
2017-04-17T04:31:37.654Z,99.99
2017-04-17T04:32:37.631Z,99.99
2017-04-17T04:33:37.922Z,99.99
2017-04-17T04:34:37.943Z,99.99
2017-04-17T04:35:37.873Z,99.99
2017-04-17T04:36:37.552Z,99.99
2017-04-17T04:37:37.522Z,99.99
2017-04-17T04:38:37.562Z,99.99
2017-04-17T04:39:37.782Z,99.99
2017-04-17T04:40:37.525Z,99.99
2017-04-17T04:41:37.752Z,99.99
2017-04-17T04:42:37.784Z,99.99
2017-04-17T04:43:37.391Z,99.99
2017-04-17T04:44:37.749Z,99.99
2017-04-17T04:45:37.343Z,99.99
2017-04-17T04:46:37.372Z,99.99
2017-04-17T04:47:37.715Z,99.99
2017-04-17T04:48:37.621Z,99.99
2017-04-17T04:49:37.578Z,99.99
2017-04-17T04:50:37.572Z,99.99
2017-04-17T04:51:37.642Z,99.99
2017-04-17T04:52:37.613Z,99.99
2017-04-17T04:53:37.551Z,99.99
2017-04-17T04:54:37.222Z,99.99
2017-04-17T04:55:37.582Z,99.99
2017-04-17T04:56:37.476Z,99.99
2017-04-17T04:57:37.397Z,99.99
2017-04-17T04:58:37.067Z,99.99
2017-04-17T04:59:37.346Z,99.99
2017-04-17T05:00:37.364Z,99.99
2017-04-17T05:01:36.999Z,99.99
2017-04-17T05:02:37.292Z,99.99
2017-04-17T05:03:36.953Z,99.99
2017-04-17T05:04:37.272Z,99.99
2017-04-17T05:05:37.225Z,99.99
2017-04-17T05:06:37.212Z,99.99
2017-04-17T05:07:37.180Z,99.99
2017-04-17T05:08:37.159Z,99.99
2017-04-17T05:09:36.827Z,99.99
2017-04-17T05:10:36.805Z,99.99
2017-04-17T05:11:37.131Z,99.99
2017-04-17T05:12:36.755Z,99.99
2017-04-17T05:13:37.170Z,99.99
2017-04-17T05:14:37.019Z,99.99
2017-04-17T05:15:36.994Z,99.99
2017-04-17T05:16:36.974Z,99.99
2017-04-17T05:17:36.714Z,99.99
2017-04-17T05:18:36.928Z,99.99
2017-04-17T05:19:36.602Z,99.99
2017-04-17T05:20:36.898Z,99.99
2017-04-17T05:21:36.870Z,99.99
2017-04-17T05:22:36.853Z,99.99
2017-04-17T05:23:36.820Z,99.99
2017-04-17T05:24:36.492Z,99.99
2017-04-17T05:25:36.793Z,99.99
2017-04-17T05:26:36.454Z,99.99
2017-04-17T05:27:36.737Z,99.99
2017-04-17T05:28:36.725Z,99.99
2017-04-17T05:29:36.681Z,99.99
2017-04-17T05:30:36.671Z,99.99
2017-04-17T05:31:36.639Z,99.99
2017-04-17T05:32:36.323Z,99.99
2017-04-17T05:33:36.602Z,99.99
2017-04-17T05:34:36.280Z,99.99
2017-04-17T05:35:36.559Z,99.99
2017-04-17T05:36:36.249Z,99.99
2017-04-17T05:37:36.508Z,99.99
2017-04-17T05:38:36.192Z,99.99
2017-04-17T05:39:36.471Z,99.99
2017-04-17T05:40:36.453Z,99.99
2017-04-17T05:41:36.114Z,99.99
2017-04-17T05:42:36.402Z,99.99
2017-04-17T05:43:36.377Z,99.99
2017-04-17T05:44:36.358Z,99.99
2017-04-17T05:45:36.042Z,99.99
2017-04-17T05:46:36.029Z,99.99
2017-04-17T05:47:36.289Z,99.99
2017-04-17T05:48:36.283Z,99.99
2017-04-17T05:49:36.267Z,99.99
2017-04-17T05:50:36.235Z,99.99
2017-04-17T05:51:36.223Z,99.99
2017-04-17T05:52:36.195Z,99.99
2017-04-17T05:53:35.852Z,99.99
2017-04-17T05:54:35.832Z,99.99
2017-04-17T05:55:36.123Z,99.99
2017-04-17T05:56:35.792Z,99.99
2017-04-17T05:57:36.103Z,99.99
2017-04-17T05:58:36.064Z,99.99
2017-04-17T05:59:36.042Z,99.99
2017-04-17T06:00:36.013Z,99.99
2017-04-17T06:01:35.684Z,99.99
2017-04-17T06:02:35.962Z,99.99
2017-04-17T06:03:35.951Z,99.99
2017-04-17T06:04:35.928Z,99.99
2017-04-17T06:05:35.901Z,99.99
2017-04-17T06:06:35.884Z,99.99
2017-04-17T06:07:35.854Z,99.99
2017-04-17T06:08:35.856Z,99.99
2017-04-17T06:09:35.809Z,99.99
2017-04-17T06:10:35.792Z,99.99
2017-04-17T06:11:35.782Z,99.99
2017-04-17T06:12:35.751Z,99.99
2017-04-17T06:13:35.740Z,99.99
2017-04-17T06:14:35.409Z,99.99
2017-04-17T06:15:35.693Z,99.99
2017-04-17T06:16:35.672Z,99.99
2017-04-17T06:17:35.643Z,99.99
2017-04-17T06:18:35.354Z,99.99
2017-04-17T06:19:35.596Z,99.99
2017-04-17T06:20:35.581Z,99.99
2017-04-17T06:21:35.580Z,99.99
2017-04-17T06:22:35.539Z,99.99
2017-04-17T06:23:35.532Z,99.99
2017-04-17T06:24:35.209Z,99.99
2017-04-17T06:25:35.485Z,99.99
2017-04-17T06:26:35.451Z,99.99
2017-04-17T06:27:35.434Z,99.99
2017-04-17T06:28:35.413Z,99.99
2017-04-17T06:29:35.087Z,99.99
2017-04-17T06:30:35.376Z,99.99
2017-04-17T06:31:35.050Z,99.99
2017-04-17T06:32:35.024Z,99.99
2017-04-17T06:33:35.323Z,99.99
2017-04-17T06:34:35.299Z,99.99
2017-04-17T06:35:34.964Z,99.99
2017-04-17T06:36:35.242Z,99.99
2017-04-17T06:37:35.233Z,99.99
2017-04-17T06:38:35.213Z,99.99
2017-04-17T06:39:35.184Z,99.99
2017-04-17T06:40:35.161Z,99.99
2017-04-17T06:41:35.142Z,99.99
2017-04-17T06:42:35.112Z,99.99
2017-04-17T06:43:35.112Z,99.99
2017-04-17T06:44:35.073Z,99.99
2017-04-17T06:45:35.045Z,99.99
2017-04-17T06:46:35.028Z,99.99
2017-04-17T06:47:35.026Z,99.99
2017-04-17T06:48:34.983Z,99.99
2017-04-17T06:49:34.968Z,99.99
2017-04-17T06:50:34.653Z,99.99
2017-04-17T06:51:34.922Z,99.99
2017-04-17T06:52:34.897Z,99.99
2017-04-17T06:53:34.892Z,99.99
2017-04-17T06:54:34.861Z,99.99
2017-04-17T06:55:34.839Z,99.99
2017-04-17T06:56:34.511Z,99.99
2017-04-17T06:57:34.491Z,99.99
2017-04-17T06:58:34.772Z,99.99
2017-04-17T06:59:34.774Z,99.99
2017-04-17T07:00:34.731Z,99.99
2017-04-17T07:01:34.747Z,99.99
2017-04-17T07:02:34.700Z,99.99
2017-04-17T07:03:34.370Z,99.99
2017-04-17T07:04:34.655Z,99.99
2017-04-17T07:05:34.634Z,99.99
2017-04-17T07:06:34.613Z,99.99
2017-04-17T07:07:34.591Z,99.99
2017-04-17T07:08:34.266Z,99.99
2017-04-17T07:09:34.242Z,99.99
2017-04-17T07:10:34.221Z,99.99
2017-04-17T07:11:34.511Z,99.99
2017-04-17T07:12:34.505Z,99.99
2017-04-17T07:13:34.492Z,99.99
2017-04-17T07:14:34.463Z,99.99
2017-04-17T07:15:34.141Z,99.99
2017-04-17T07:16:34.101Z,99.99
2017-04-17T07:17:34.382Z,99.99
2017-04-17T07:18:34.383Z,99.99
2017-04-17T07:19:34.343Z,99.99
2017-04-17T07:20:34.331Z,99.99
2017-04-17T07:21:34.308Z,99.99
2017-04-17T07:22:34.281Z,99.99
2017-04-17T07:23:33.964Z,99.99
2017-04-17T07:24:33.938Z,99.99
2017-04-17T07:25:33.926Z,99.99
2017-04-17T07:26:34.204Z,99.99
2017-04-17T07:27:34.261Z,99.99
2017-04-17T07:28:34.163Z,99.99
2017-04-17T07:29:33.836Z,99.99
2017-04-17T07:30:34.124Z,99.99
2017-04-17T07:31:33.801Z,99.99
2017-04-17T07:32:33.772Z,99.99
2017-04-17T07:33:34.061Z,99.99
2017-04-17T07:34:34.043Z,99.99
2017-04-17T07:35:33.719Z,99.99
2017-04-17T07:36:34.055Z,99.99
2017-04-17T07:37:34.003Z,99.99
2017-04-17T07:38:33.662Z,99.99
2017-04-17T07:39:33.941Z,99.99
2017-04-17T07:40:33.922Z,99.99
2017-04-17T07:41:33.902Z,99.99
2017-04-17T07:42:33.574Z,99.99
2017-04-17T07:43:33.873Z,99.99
2017-04-17T07:44:34.114Z,99.99
2017-04-17T07:45:33.824Z,99.99
2017-04-17T07:46:33.810Z,99.66
2017-04-17T07:47:33.792Z,99.99
2017-04-17T07:48:33.454Z,99.85
2017-04-17T07:49:33.752Z,99.08
2017-04-17T07:50:33.784Z,98.9
2017-04-17T07:51:33.412Z,99.37
2017-04-17T07:52:33.685Z,99.95
2017-04-17T07:53:33.708Z,99.99
2017-04-17T07:54:33.642Z,99.99
2017-04-17T07:55:33.632Z,99.99
2017-04-17T07:56:33.723Z,99.99
2017-04-17T07:57:33.280Z,99.99
2017-04-17T07:58:33.568Z,99.7
2017-04-17T07:59:33.542Z,99.99
2017-04-17T08:00:33.613Z,99.99
2017-04-17T08:01:33.202Z,99.99
2017-04-17T08:02:33.482Z,99.99
2017-04-17T08:03:33.471Z,99.99
2017-04-17T08:04:33.444Z,99.99
2017-04-17T08:05:33.428Z,99.99
2017-04-17T08:06:33.416Z,99.99
2017-04-17T08:07:33.074Z,99.99
2017-04-17T08:08:33.372Z,99.99
2017-04-17T08:09:33.032Z,99.7
2017-04-17T08:10:33.382Z,99.99
2017-04-17T08:11:33.313Z,99.84
2017-04-17T08:12:33.283Z,99.55
2017-04-17T08:13:33.262Z,99.99
2017-04-17T08:14:33.255Z,99.99
2017-04-17T08:15:32.914Z,99.99
2017-04-17T08:16:33.223Z,98.51
2017-04-17T08:17:32.873Z,96.46
2017-04-17T08:18:33.255Z,95.89
2017-04-17T08:19:33.155Z,96.51
2017-04-17T08:20:33.154Z,96.8
2017-04-17T08:21:32.803Z,96.8
2017-04-17T08:22:32.783Z,96.61
2017-04-17T08:23:32.779Z,96.41
2017-04-17T08:24:33.051Z,97.27
2017-04-17T08:25:33.034Z,97.75
2017-04-17T08:26:32.714Z,97.66
2017-04-17T08:27:33.003Z,96.7
2017-04-17T08:28:33.035Z,94.31
2017-04-17T08:29:32.970Z,91.06
2017-04-17T08:30:32.951Z,88.91
2017-04-17T08:31:32.631Z,86.51
2017-04-17T08:32:32.609Z,83.82
2017-04-17T08:33:32.914Z,81.75
2017-04-17T08:34:32.891Z,80.99
2017-04-17T08:35:32.872Z,79.88
2017-04-17T08:36:32.561Z,78.77
2017-04-17T08:37:32.550Z,75.6
2017-04-17T08:38:32.854Z,76.37
2017-04-17T08:39:32.828Z,75.92
2017-04-17T08:40:32.813Z,73.91
2017-04-17T08:41:32.824Z,72.85
2017-04-17T08:42:32.800Z,72.02
2017-04-17T08:43:32.795Z,73.24
2017-04-17T08:44:32.482Z,72.18
2017-04-17T08:45:32.771Z,72.02
2017-04-17T08:46:32.467Z,72.22
2017-04-17T08:47:32.455Z,71.19
2017-04-17T08:48:32.457Z,68.25
2017-04-17T08:49:32.453Z,67.64
2017-04-17T08:50:32.762Z,67.86
2017-04-17T08:51:32.447Z,67.51
2017-04-17T08:52:32.736Z,67.03
2017-04-17T08:53:32.423Z,66.81
2017-04-17T08:54:32.725Z,65.78
2017-04-17T08:55:32.723Z,66.42
2017-04-17T08:56:32.714Z,67.1
2017-04-17T08:57:32.712Z,67.29
2017-04-17T08:58:32.696Z,66.52
2017-04-17T08:59:32.702Z,66.04
2017-04-17T09:00:32.377Z,65.88
2017-04-17T09:01:32.693Z,65.43
2017-04-17T09:02:32.672Z,63.92
2017-04-17T09:03:32.673Z,63.06
2017-04-17T09:04:32.663Z,62.57
2017-04-17T09:05:32.665Z,61.22
2017-04-17T09:06:32.352Z,60.75
2017-04-17T09:07:32.663Z,59.04
2017-04-17T09:08:32.639Z,59.72
2017-04-17T09:09:32.348Z,59.04
2017-04-17T09:10:32.643Z,59.52
2017-04-17T09:11:32.634Z,58.69
2017-04-17T09:12:32.654Z,58.3
2017-04-17T09:13:32.623Z,58.17
2017-04-17T09:14:32.616Z,58.37
2017-04-17T09:15:32.315Z,58.44
2017-04-17T09:16:32.633Z,60.62
2017-04-17T09:17:32.602Z,61.78
2017-04-17T09:18:32.594Z,63.16
2017-04-17T09:19:32.586Z,64.95
2017-04-17T09:20:32.575Z,66.61
2017-04-17T09:21:32.562Z,66.99
2017-04-17T09:22:32.262Z,66.99
2017-04-17T09:23:32.556Z,65.11
2017-04-17T09:24:32.576Z,65.01
2017-04-17T09:25:32.245Z,65.01
2017-04-17T09:26:32.534Z,64.37
2017-04-17T09:27:32.518Z,63.6
2017-04-17T09:28:32.517Z,63.79
2017-04-17T09:29:32.510Z,62.55
2017-04-17T09:30:32.242Z,61.43
2017-04-17T09:31:32.182Z,60.75
2017-04-17T09:32:32.479Z,60.6
2017-04-17T09:33:32.476Z,60.72
2017-04-17T09:34:32.459Z,59.53
2017-04-17T09:35:32.161Z,58.28
2017-04-17T09:36:32.443Z,57.22
2017-04-17T09:37:32.449Z,57.45
2017-04-17T09:38:32.435Z,57.25
2017-04-17T09:39:32.442Z,57.45
2017-04-17T09:40:32.420Z,56.29
2017-04-17T09:41:32.416Z,56.1
2017-04-17T09:42:32.398Z,56.96
2017-04-17T09:43:32.392Z,55.93
2017-04-17T09:44:32.081Z,55.74
2017-04-17T09:45:32.082Z,54.68
2017-04-17T09:46:32.380Z,55.43
2017-04-17T09:47:32.380Z,55.88
2017-04-17T09:48:32.364Z,57.17
2017-04-17T09:49:32.050Z,57.84
2017-04-17T09:50:32.032Z,59.06
2017-04-17T09:51:32.349Z,60.18
2017-04-17T09:52:32.021Z,61.21
2017-04-17T09:53:32.325Z,61.14
2017-04-17T09:54:32.293Z,61.43
2017-04-17T09:55:32.295Z,61.24
2017-04-17T09:56:32.304Z,61.69
2017-04-17T09:57:32.015Z,63
2017-04-17T09:58:32.274Z,64.05
2017-04-17T09:59:32.246Z,66.03
2017-04-17T10:00:31.937Z,68.11
2017-04-17T10:01:31.919Z,69.51
2017-04-17T10:02:32.215Z,69.99
2017-04-17T10:03:31.897Z,71.3
2017-04-17T10:04:32.211Z,71.93
2017-04-17T10:05:32.195Z,72.98
2017-04-17T10:06:32.160Z,73.27
2017-04-17T10:07:32.150Z,72.98
2017-04-17T10:08:32.131Z,73.9
2017-04-17T10:09:31.819Z,73.36
2017-04-17T10:10:31.793Z,73.94
2017-04-17T10:11:32.093Z,73.11
2017-04-17T10:12:31.769Z,72.73
2017-04-17T10:13:32.076Z,71.52
2017-04-17T10:14:31.861Z,69.93
2017-04-17T10:15:32.034Z,69.29
2017-04-17T10:16:31.709Z,69.13
2017-04-17T10:17:32.005Z,67.54
2017-04-17T10:18:31.982Z,65.94
2017-04-17T10:19:31.982Z,64.98
2017-04-17T10:20:31.660Z,64.59
2017-04-17T10:21:31.642Z,64.31
2017-04-17T10:22:31.936Z,63.76
2017-04-17T10:23:31.928Z,63.73
2017-04-17T10:24:31.910Z,63.67
2017-04-17T10:25:31.905Z,63.57
2017-04-17T10:26:31.874Z,63.76
2017-04-17T10:27:31.866Z,62.45
2017-04-17T10:28:31.854Z,63.02
2017-04-17T10:29:31.847Z,62.07
2017-04-17T10:30:31.823Z,62.07
2017-04-17T10:31:31.824Z,61.49
2017-04-17T10:32:31.795Z,61.61
2017-04-17T10:33:31.778Z,61.78
2017-04-17T10:34:31.525Z,62.84
2017-04-17T10:35:31.762Z,62.81
2017-04-17T10:36:31.736Z,63.25
2017-04-17T10:37:31.414Z,63.03
2017-04-17T10:38:31.504Z,63.03
2017-04-17T10:39:31.697Z,63
2017-04-17T10:40:31.443Z,63.48
2017-04-17T10:41:31.674Z,64.63
2017-04-17T10:42:31.664Z,63.89
2017-04-17T10:43:31.644Z,61.72
2017-04-17T10:44:31.650Z,60.69
2017-04-17T10:45:31.616Z,60.05
2017-04-17T10:46:31.702Z,59.69
2017-04-17T10:47:31.599Z,59.34
2017-04-17T10:48:31.685Z,58.47
2017-04-17T10:49:31.576Z,58.18
2017-04-17T10:50:31.636Z,57.32
2017-04-17T10:51:31.545Z,56.93
2017-04-17T10:52:31.524Z,56.55
2017-04-17T10:53:31.505Z,55.88
2017-04-17T10:54:31.569Z,56.07
2017-04-17T10:55:31.578Z,56.48
2017-04-17T10:56:31.466Z,55.9
2017-04-17T10:57:31.467Z,55.62
2017-04-17T10:58:31.465Z,55.65
2017-04-17T10:59:31.429Z,56
2017-04-17T11:00:31.524Z,56.84
2017-04-17T11:01:31.510Z,56.84
2017-04-17T11:02:31.447Z,57.32
2017-04-17T11:03:31.489Z,56.55
2017-04-17T11:04:31.374Z,57.03
2017-04-17T11:05:31.363Z,57.68
2017-04-17T11:06:31.358Z,57.26
2017-04-17T11:07:31.336Z,56.59
2017-04-17T11:08:31.315Z,56.71
2017-04-17T11:09:31.302Z,56.52
2017-04-17T11:10:30.981Z,56.91
2017-04-17T11:11:31.337Z,55.56
2017-04-17T11:12:30.970Z,56.3
2017-04-17T11:13:31.359Z,58.35
2017-04-17T11:14:30.925Z,56.55
2017-04-17T11:15:31.244Z,56.65
2017-04-17T11:16:30.909Z,56.84
2017-04-17T11:17:31.287Z,56.93
2017-04-17T11:18:31.182Z,57.51
2017-04-17T11:19:31.164Z,57.29
2017-04-17T11:20:31.162Z,55.44
2017-04-17T11:21:31.153Z,56.53
2017-04-17T11:22:31.123Z,58.04
2017-04-17T11:23:30.805Z,58.81
2017-04-17T11:24:31.102Z,58.45
2017-04-17T11:25:31.212Z,57.43
2017-04-17T11:26:31.074Z,55.82
2017-04-17T11:27:31.069Z,55.53
2017-04-17T11:28:31.052Z,55.82
2017-04-17T11:29:31.031Z,56.49
2017-04-17T11:30:31.022Z,56.98
2017-04-17T11:31:31.024Z,57.55
2017-04-17T11:32:31.003Z,57.55
2017-04-17T11:33:30.977Z,58.42
2017-04-17T11:34:30.964Z,58.39
2017-04-17T11:35:30.955Z,58.87
2017-04-17T11:36:30.944Z,58.58
2017-04-17T11:37:30.927Z,58.96
2017-04-17T11:38:30.603Z,59.96
2017-04-17T11:39:30.882Z,60.82
2017-04-17T11:40:30.873Z,60.72
2017-04-17T11:41:30.863Z,60.53
2017-04-17T11:42:30.865Z,61.24
2017-04-17T11:43:30.842Z,59.54
2017-04-17T11:44:30.830Z,59.16
2017-04-17T11:45:30.802Z,59.51
2017-04-17T11:46:30.483Z,59.99
2017-04-17T11:47:30.786Z,61.21
2017-04-17T11:48:30.763Z,61.37
2017-04-17T11:49:30.449Z,62.01
2017-04-17T11:50:30.807Z,62.77
2017-04-17T11:51:30.725Z,62.77
2017-04-17T11:52:30.703Z,62.77
2017-04-17T11:53:30.703Z,62.59
2017-04-17T11:54:30.692Z,62.96
2017-04-17T11:55:30.664Z,62.01
2017-04-17T11:56:30.645Z,61.05
2017-04-17T11:57:30.632Z,61.24
2017-04-17T11:58:30.613Z,60.44
2017-04-17T11:59:30.602Z,60.93
2017-04-17T12:00:30.582Z,61.69
2017-04-17T12:01:30.264Z,62.71
2017-04-17T12:02:30.552Z,64.59
2017-04-17T12:03:30.532Z,65.94
2017-04-17T12:04:30.533Z,66.8
2017-04-17T12:05:30.505Z,67.27
2017-04-17T12:06:30.188Z,67.08
2017-04-17T12:07:30.473Z,67.08
2017-04-17T12:08:30.467Z,68.1
2017-04-17T12:09:30.440Z,69.15
2017-04-17T12:10:30.424Z,70.27
2017-04-17T12:11:30.413Z,71.32
2017-04-17T12:12:30.391Z,70.97
2017-04-17T12:13:30.075Z,70.62
2017-04-17T12:14:30.358Z,70.37
2017-04-17T12:15:30.345Z,69.7
2017-04-17T12:16:30.324Z,68.4
2017-04-17T12:17:30.023Z,67.34
2017-04-17T12:18:30.293Z,66.22
2017-04-17T12:19:30.278Z,66.03
2017-04-17T12:20:30.262Z,66.61
2017-04-17T12:21:29.946Z,66.32
2017-04-17T12:22:29.931Z,66.26
2017-04-17T12:23:30.435Z,66.26
2017-04-17T12:24:30.200Z,65.91
2017-04-17T12:25:29.983Z,64.79
2017-04-17T12:26:30.173Z,63.35
2017-04-17T12:27:30.174Z,63.16
2017-04-17T12:28:30.138Z,62.13
2017-04-17T12:29:30.133Z,61.94
2017-04-17T12:30:30.106Z,62.77
2017-04-17T12:31:30.226Z,62.9
2017-04-17T12:32:30.138Z,62.13
2017-04-17T12:33:30.161Z,63.06
2017-04-17T12:34:30.047Z,63.22
2017-04-17T12:35:29.822Z,63.25
2017-04-17T12:36:30.013Z,64.98
2017-04-17T12:37:30.033Z,63.09
2017-04-17T12:38:29.683Z,62.58
2017-04-17T12:39:30.084Z,63.83
2017-04-17T12:40:29.993Z,64.43
2017-04-17T12:41:29.952Z,63.38
2017-04-17T12:42:30.013Z,63.38
2017-04-17T12:43:30.005Z,63.35
2017-04-17T12:44:29.947Z,64.02
2017-04-17T12:45:29.965Z,63.35
2017-04-17T12:46:29.973Z,63.73
2017-04-17T12:47:29.904Z,62.71
2017-04-17T12:48:29.545Z,61.75
2017-04-17T12:49:29.593Z,63.19
2017-04-17T12:50:29.916Z,63.38
2017-04-17T12:51:29.856Z,62.99
2017-04-17T12:52:29.482Z,63.19
2017-04-17T12:53:29.512Z,63.25